Time;durP1;ratioP1;P1;durP2;ratioP2;P2;SDS_P1;SDS_P2;PMS_P1;PMS_P2;Temp;Humidity;BMP_temperature;BMP_pressure;BME280_temperature;BME280_humidity;BME280_pressure;Samples;Min_cycle;Max_cycle;Signal;HPM_P1;HPM_P2
2024/01/16 00:01:06;;;;;;;12.98;7.68;;;;;;;4.06;54.26;93471.06;5027510;28;20041;-84
2024/01/16 00:03:32;;;;;;;11.32;7.50;;;;;;;4.08;53.92;93485.75;5026487;28;20412;-83
2024/01/16 00:05:57;;;;;;;11.70;7.63;;;;;;;4.14;54.30;93465.00;5027837;28;20032;-83
2024/01/16 00:08:23;;;;;;;11.80;7.30;;;;;;;4.12;54.41;93491.09;5027515;28;20531;-84
2024/01/16 00:10:48;;;;;;;12.25;7.30;;;;;;;4.11;54.07;93482.16;5028249;28;20041;-84
2024/01/16 00:13:14;;;;;;;9.15;5.40;;;;;;;4.31;56.78;93476.59;5027302;28;20496;-83
2024/01/16 00:15:41;;;;;;;13.35;6.90;;;;;;;4.30;54.69;93466.91;5027991;28;20025;-82
2024/01/16 00:18:08;;;;;;;11.45;6.80;;;;;;;4.26;54.96;93482.56;5027173;28;20030;-83
2024/01/16 00:20:33;;;;;;;11.90;7.30;;;;;;;4.20;54.82;93489.72;5027542;28;20029;-83
2024/01/16 00:23:00;;;;;;;11.90;8.23;;;;;;;4.21;54.75;93499.41;5027769;28;20042;-84
2024/01/16 00:25:25;;;;;;;13.05;7.47;;;;;;;4.20;54.86;93495.16;5027480;28;20029;-84
2024/01/16 00:27:51;;;;;;;14.45;7.47;;;;;;;4.22;55.31;93496.25;5028108;28;20076;-84
2024/01/16 00:30:17;;;;;;;12.85;8.27;;;;;;;4.24;55.62;93466.66;5027291;28;20099;-83
2024/01/16 00:32:43;;;;;;;12.63;7.35;;;;;;;4.32;56.04;93486.28;5026480;28;20029;-83
2024/01/16 00:35:08;;;;;;;12.98;6.95;;;;;;;4.33;56.45;93514.22;5027024;28;20500;-83
2024/01/16 00:37:36;;;;;;;13.85;7.60;;;;;;;4.33;56.83;93498.66;5027596;28;20112;-85
2024/01/16 00:40:04;;;;;;;11.40;6.60;;;;;;;4.42;57.03;93511.66;5026995;28;20526;-83
2024/01/16 00:42:29;;;;;;;7.90;5.13;;;;;;;4.39;57.41;93496.19;5025970;28;20072;-83
2024/01/16 00:44:54;;;;;;;9.50;5.82;;;;;;;4.42;57.60;93485.22;5027223;28;20052;-84
2024/01/16 00:47:20;;;;;;;8.73;5.55;;;;;;;4.46;57.63;93487.81;5027261;28;20030;-84
2024/01/16 00:49:45;;;;;;;8.48;5.63;;;;;;;4.40;58.07;93501.19;5027676;28;20379;-84
2024/01/16 00:52:10;;;;;;;8.82;5.30;;;;;;;4.44;58.14;93482.03;5026903;28;20049;-84
2024/01/16 00:54:36;;;;;;;8.93;5.75;;;;;;;4.46;58.29;93495.97;5027358;28;20079;-84
2024/01/16 00:57:01;;;;;;;9.05;4.95;;;;;;;4.43;58.40;93484.00;5026895;28;20406;-84
2024/01/16 00:59:27;;;;;;;7.70;4.97;;;;;;;4.43;58.53;93519.38;5026526;28;20037;-84
2024/01/16 01:01:52;;;;;;;7.85;5.03;;;;;;;4.49;58.83;93519.63;5026978;28;20030;-84
2024/01/16 01:04:18;;;;;;;9.95;5.75;;;;;;;4.53;59.06;93526.50;5026553;28;20104;-84
2024/01/16 01:06:43;;;;;;;7.97;4.78;;;;;;;4.56;59.33;93534.97;5026807;28;20033;-84
2024/01/16 01:09:11;;;;;;;8.73;5.47;;;;;;;4.55;59.72;93523.34;5026543;28;20031;-83
2024/01/16 01:11:38;;;;;;;9.57;5.07;;;;;;;4.66;59.13;93518.34;5026713;28;20037;-84
2024/01/16 01:14:03;;;;;;;7.38;5.00;;;;;;;4.70;59.51;93519.00;5026497;28;20032;-84
2024/01/16 01:16:28;;;;;;;8.57;5.38;;;;;;;4.65;59.64;93519.53;5026543;28;20045;-83
2024/01/16 01:18:54;;;;;;;9.02;5.25;;;;;;;4.61;59.67;93515.41;5026330;28;20033;-83
2024/01/16 01:21:19;;;;;;;8.98;5.65;;;;;;;4.67;59.33;93513.66;5026438;28;20030;-83
2024/01/16 01:23:45;;;;;;;8.38;5.20;;;;;;;4.66;59.24;93507.47;5026513;28;20507;-83
2024/01/16 01:26:13;;;;;;;7.88;5.22;;;;;;;4.66;59.12;93510.19;5025733;28;20404;-83
2024/01/16 01:28:40;;;;;;;6.22;4.05;;;;;;;4.55;60.40;93500.78;5026186;28;20025;-83
2024/01/16 01:31:05;;;;;;;10.13;6.57;;;;;;;4.65;59.20;93500.50;5025819;28;20683;-83
2024/01/16 01:33:31;;;;;;;10.63;6.75;;;;;;;4.49;58.60;93508.72;5026202;28;20033;-83
2024/01/16 01:35:56;;;;;;;9.98;7.15;;;;;;;4.46;58.03;93482.38;5025880;28;20117;-83
2024/01/16 01:38:21;;;;;;;13.35;7.95;;;;;;;4.50;58.03;93504.81;5025842;28;20029;-83
2024/01/16 01:40:47;;;;;;;14.50;8.35;;;;;;;4.43;57.91;93508.50;5025945;28;20037;-83
2024/01/16 01:43:24;;;;;;;12.55;8.48;;;;;;;4.34;58.65;93504.88;5025521;28;20025;-83
2024/01/16 01:46:09;;;;;;;12.93;8.80;;;;;;;4.32;58.91;93505.31;5026274;28;20033;-83
2024/01/16 01:48:36;;;;;;;12.77;7.18;;;;;;;4.32;59.45;93504.56;5024237;28;20064;-84
2024/01/16 01:51:01;;;;;;;12.07;7.95;;;;;;;4.31;59.76;93506.50;5024535;28;20034;-83
2024/01/16 01:53:28;;;;;;;13.70;7.78;;;;;;;4.33;59.68;93509.56;5025256;28;20358;-83
2024/01/16 01:55:54;;;;;;;12.90;8.55;;;;;;;4.37;59.76;93517.63;5025780;28;20029;-84
2024/01/16 01:58:19;;;;;;;12.45;7.18;;;;;;;4.37;59.18;93507.50;5025844;28;20029;-84
2024/01/16 02:00:45;;;;;;;13.98;8.02;;;;;;;4.36;59.20;93511.44;5025420;28;20060;-85
2024/01/16 02:03:10;;;;;;;12.32;8.23;;;;;;;4.40;59.39;93508.59;5024685;28;20289;-85
2024/01/16 02:05:36;;;;;;;12.40;7.70;;;;;;;4.41;59.57;93513.59;5025178;28;20026;-85
2024/01/16 02:08:02;;;;;;;12.82;8.23;;;;;;;4.49;59.20;93506.78;5026424;28;20113;-85
2024/01/16 02:10:27;;;;;;;12.68;9.02;;;;;;;4.44;59.45;93518.19;5027393;28;20138;-85
2024/01/16 02:12:53;;;;;;;12.90;9.27;;;;;;;4.55;59.28;93509.72;5031412;28;20018;-85
2024/01/16 02:15:18;;;;;;;12.52;7.70;;;;;;;4.56;59.38;93519.41;5032031;28;20025;-83
2024/01/16 02:17:44;;;;;;;10.05;7.43;;;;;;;4.56;59.61;93516.69;5044508;28;20045;-85
2024/01/16 02:20:10;;;;;;;13.27;7.95;;;;;;;4.53;59.79;93529.22;5050653;28;20021;-83
2024/01/16 02:22:35;;;;;;;13.35;7.30;;;;;;;4.52;60.25;93526.91;5048217;28;20037;-84
2024/01/16 02:25:01;;;;;;;12.27;8.15;;;;;;;4.44;60.75;93536.47;5026825;28;20049;-84
2024/01/16 02:27:26;;;;;;;12.32;8.68;;;;;;;4.48;60.90;93551.50;5031712;28;20048;-83
2024/01/16 02:29:52;;;;;;;12.80;8.65;;;;;;;4.47;60.85;93557.38;5027226;28;20060;-83
2024/01/16 02:32:17;;;;;;;15.15;8.95;;;;;;;4.50;60.78;93560.00;5025785;28;20032;-83
2024/01/16 02:34:43;;;;;;;15.27;8.80;;;;;;;4.50;60.99;93573.59;5025481;28;20484;-84
2024/01/16 02:37:09;;;;;;;12.15;8.75;;;;;;;4.49;61.23;93574.81;5024559;28;20030;-83
2024/01/16 02:39:34;;;;;;;13.90;9.05;;;;;;;4.45;61.57;93573.38;5024889;28;20041;-84
2024/01/16 02:42:00;;;;;;;14.25;9.45;;;;;;;4.49;61.67;93582.22;5025703;28;20036;-83
2024/01/16 02:44:25;;;;;;;14.25;9.15;;;;;;;4.51;61.83;93586.00;5024501;28;20033;-83
2024/01/16 02:46:50;;;;;;;14.82;9.52;;;;;;;4.48;62.43;93614.09;5025528;28;20025;-83
2024/01/16 02:49:16;;;;;;;16.25;8.98;;;;;;;4.54;62.50;93614.34;5024821;28;20112;-83
2024/01/16 02:51:41;;;;;;;13.50;7.90;;;;;;;4.49;63.19;93618.34;5024768;28;20048;-83
2024/01/16 02:54:08;;;;;;;11.05;7.47;;;;;;;4.48;63.70;93624.22;5025046;28;20104;-84
2024/01/16 02:56:33;;;;;;;12.57;7.30;;;;;;;4.53;63.69;93619.03;5024500;28;20423;-84
2024/01/16 02:58:58;;;;;;;10.13;6.43;;;;;;;4.72;64.12;93630.97;5024918;28;20030;-84
2024/01/16 03:01:24;;;;;;;10.70;4.68;;;;;;;4.78;65.21;93631.94;5024757;28;20026;-83
2024/01/16 03:03:49;;;;;;;6.07;3.67;;;;;;;4.88;66.67;93632.09;5023843;28;20072;-86
2024/01/16 03:06:25;;;;;;;4.32;2.22;;;;;;;4.94;68.07;93635.81;5024480;28;20025;-85
2024/01/16 03:08:51;;;;;;;1.75;1.25;;;;;;;4.96;68.57;93647.78;5024845;28;20029;-85
2024/01/16 03:11:16;;;;;;;3.80;2.20;;;;;;;4.88;69.30;93662.81;5023066;28;20195;-84
2024/01/16 03:13:43;;;;;;;4.10;2.60;;;;;;;4.82;69.66;93678.16;5024489;28;20109;-84
2024/01/16 03:16:10;;;;;;;3.83;2.55;;;;;;;4.85;69.25;93687.41;5024975;28;20488;-84
2024/01/16 03:18:35;;;;;;;4.60;3.05;;;;;;;4.87;68.86;93688.50;5024626;28;20543;-84
2024/01/16 03:21:01;;;;;;;5.53;3.67;;;;;;;4.85;68.60;93696.34;5025234;28;20108;-85
2024/01/16 03:23:26;;;;;;;4.82;3.40;;;;;;;4.86;68.32;93703.31;5024547;28;20103;-84
2024/01/16 03:25:52;;;;;;;5.10;3.53;;;;;;;4.86;68.16;93706.03;5024656;28;20029;-84
2024/01/16 03:28:17;;;;;;;3.92;3.53;;;;;;;4.77;68.05;93714.84;5025466;28;20060;-83
2024/01/16 03:30:43;;;;;;;5.07;3.53;;;;;;;4.77;68.03;93720.28;5024421;28;20151;-85
2024/01/16 03:33:08;;;;;;;4.93;3.55;;;;;;;4.74;68.08;93725.81;5025996;28;20029;-86
2024/01/16 03:35:34;;;;;;;5.70;3.63;;;;;;;4.70;68.03;93728.63;5025294;28;20089;-86
2024/01/16 03:37:59;;;;;;;5.03;3.50;;;;;;;4.71;67.38;93732.88;5026033;28;20500;-84
2024/01/16 03:40:25;;;;;;;4.25;3.45;;;;;;;4.71;67.16;93741.06;5025199;28;20033;-84
2024/01/16 03:42:50;;;;;;;4.47;3.03;;;;;;;4.67;66.75;93743.09;5025420;28;20385;-83
2024/01/16 03:45:16;;;;;;;4.10;2.58;;;;;;;4.57;66.37;93757.72;5024020;28;20082;-82
2024/01/16 03:47:41;;;;;;;4.15;2.95;;;;;;;4.46;66.54;93763.44;5025634;28;20116;-83
2024/01/16 03:50:07;;;;;;;4.18;2.78;;;;;;;4.43;66.38;93755.38;5028262;28;20033;-82
2024/01/16 03:52:32;;;;;;;4.18;2.60;;;;;;;4.43;66.34;93772.47;5028275;28;20558;-83
2024/01/16 03:54:58;;;;;;;3.20;2.83;;;;;;;4.35;66.39;93778.47;5027230;28;20507;-85
2024/01/16 03:57:24;;;;;;;3.35;2.63;;;;;;;4.35;65.86;93779.25;5027841;28;20060;-84
2024/01/16 03:59:50;;;;;;;3.88;2.70;;;;;;;4.34;65.69;93783.16;5028175;28;20034;-83
2024/01/16 04:02:15;;;;;;;2.83;2.25;;;;;;;4.31;65.65;93800.34;5027512;28;20036;-82
2024/01/16 04:04:40;;;;;;;2.45;1.92;;;;;;;4.32;65.50;93810.03;5027804;28;20076;-85
2024/01/16 04:07:06;;;;;;;3.08;2.25;;;;;;;4.26;65.24;93820.66;5027173;28;20110;-82
2024/01/16 04:09:31;;;;;;;2.92;2.13;;;;;;;4.12;65.07;93810.06;5027435;28;20029;-84
2024/01/16 04:11:56;;;;;;;2.42;1.85;;;;;;;4.15;64.89;93822.84;5027519;28;20032;-84
2024/01/16 04:14:22;;;;;;;2.25;2.00;;;;;;;4.06;64.69;93832.75;5027414;28;20119;-84
2024/01/16 04:16:47;;;;;;;1.90;1.70;;;;;;;4.05;64.65;93828.50;5027416;28;20138;-85
2024/01/16 04:19:13;;;;;;;2.30;1.73;;;;;;;3.92;64.83;93839.28;5027181;28;20424;-84
2024/01/16 04:21:38;;;;;;;2.05;1.70;;;;;;;3.90;64.58;93850.59;5027456;28;20112;-84
2024/01/16 04:24:04;;;;;;;2.05;1.65;;;;;;;3.90;64.29;93839.69;5027077;28;20025;-83
2024/01/16 04:26:29;;;;;;;2.03;1.52;;;;;;;3.84;64.58;93849.53;5026138;28;20131;-84
2024/01/16 04:28:54;;;;;;;2.38;1.63;;;;;;;3.87;63.98;93847.94;5027083;28;20180;-83
2024/01/16 04:31:22;;;;;;;2.17;1.40;;;;;;;3.83;63.82;93856.13;5027398;28;20401;-82
2024/01/16 04:33:47;;;;;;;2.28;1.55;;;;;;;3.82;63.65;93848.41;5027253;28;20041;-83
2024/01/16 04:36:13;;;;;;;2.35;1.52;;;;;;;3.79;63.54;93843.84;5027273;28;20049;-83
2024/01/16 04:38:38;;;;;;;1.90;1.65;;;;;;;3.81;63.42;93853.09;5027309;28;20036;-85
2024/01/16 04:41:04;;;;;;;2.22;1.50;;;;;;;3.77;63.25;93857.06;5027335;28;20484;-83
2024/01/16 04:43:29;;;;;;;2.85;1.95;;;;;;;3.68;63.06;93874.69;5026543;28;20082;-83
2024/01/16 04:45:55;;;;;;;3.03;1.60;;;;;;;3.65;63.06;93897.28;5025151;28;20120;-83
2024/01/16 04:48:20;;;;;;;3.30;1.67;;;;;;;3.61;62.96;93903.94;5027148;28;20036;-84
2024/01/16 04:50:45;;;;;;;2.38;1.67;;;;;;;3.60;62.61;93910.56;5025256;28;20041;-85
2024/01/16 04:53:11;;;;;;;3.03;1.85;;;;;;;3.50;62.83;93925.13;5026888;28;20051;-84
2024/01/16 04:55:36;;;;;;;3.35;2.13;;;;;;;3.49;62.79;93945.31;5026889;28;20029;-84
2024/01/16 04:58:02;;;;;;;3.50;2.15;;;;;;;3.49;62.50;93948.03;5026918;28;20368;-84
2024/01/16 05:00:27;;;;;;;3.30;1.92;;;;;;;3.47;62.66;93953.91;5027196;28;20496;-84
2024/01/16 05:02:53;;;;;;;2.08;1.48;;;;;;;3.43;62.60;93951.22;5026942;28;20026;-84
2024/01/16 05:05:18;;;;;;;3.63;1.45;;;;;;;3.45;62.43;93962.47;5027155;28;20037;-85
2024/01/16 05:07:44;;;;;;;2.08;1.50;;;;;;;3.41;62.50;93967.19;5024990;28;20413;-85
2024/01/16 05:10:13;;;;;;;1.90;1.45;;;;;;;3.36;62.49;93975.81;5026580;28;20030;-84
2024/01/16 05:12:40;;;;;;;1.40;1.30;;;;;;;3.32;62.55;93980.53;5026632;28;20021;-84
2024/01/16 05:15:06;;;;;;;2.35;1.58;;;;;;;3.31;62.55;93975.53;5026316;28;20125;-85
2024/01/16 05:17:32;;;;;;;2.30;1.42;;;;;;;3.27;62.33;93981.03;5026415;28;20069;-85
2024/01/16 05:19:57;;;;;;;1.85;1.35;;;;;;;3.22;62.34;93986.94;5025883;28;20052;-84
2024/01/16 05:22:23;;;;;;;1.52;1.02;;;;;;;3.14;62.40;93996.34;5026622;28;20037;-84
2024/01/16 05:24:48;;;;;;;2.10;1.45;;;;;;;3.11;62.58;94010.75;5024330;28;20112;-84
2024/01/16 05:27:14;;;;;;;3.10;2.05;;;;;;;3.10;62.35;94022.81;5025925;28;20104;-83
2024/01/16 05:29:42;;;;;;;2.70;1.70;;;;;;;3.04;62.45;94021.72;5025624;28;20030;-84
2024/01/16 05:32:07;;;;;;;2.95;1.42;;;;;;;3.05;62.20;94032.19;5025992;28;20095;-83
2024/01/16 05:34:33;;;;;;;2.30;1.60;;;;;;;3.10;62.00;94039.09;5026142;28;20025;-84
2024/01/16 05:36:58;;;;;;;2.50;1.58;;;;;;;3.09;61.61;94051.88;5025716;28;20059;-87
2024/01/16 05:39:23;;;;;;;1.45;1.20;;;;;;;3.05;61.84;94059.34;5026856;28;20025;-85
2024/01/16 05:41:49;;;;;;;1.73;1.42;;;;;;;3.08;61.72;94063.94;5026350;28;20035;-86
2024/01/16 05:44:15;;;;;;;1.48;1.30;;;;;;;3.09;61.46;94070.13;5026337;28;20022;-84
2024/01/16 05:46:41;;;;;;;1.90;1.15;;;;;;;3.13;61.02;94082.50;5026842;28;20034;-84
2024/01/16 05:49:06;;;;;;;1.85;1.27;;;;;;;3.06;61.04;94085.31;5026621;28;20029;-85
2024/01/16 05:51:32;;;;;;;1.88;1.23;;;;;;;3.09;60.70;94091.84;5025848;28;20104;-85
2024/01/16 05:53:57;;;;;;;1.88;1.27;;;;;;;3.09;60.77;94097.28;5026022;28;20481;-85
2024/01/16 05:56:22;;;;;;;3.85;1.50;;;;;;;3.12;60.54;94099.19;5028619;28;20021;-87
2024/01/16 05:58:48;;;;;;;4.40;1.80;;;;;;;3.12;60.31;94112.78;5025303;28;20032;-87
2024/01/16 06:01:13;;;;;;;4.15;2.03;;;;;;;3.13;60.34;94117.03;5025876;28;20056;-90
2024/01/16 06:03:39;;;;;;;3.35;1.58;;;;;;;3.07;60.29;94113.22;5025996;28;20457;-88
2024/01/16 06:06:05;;;;;;;1.85;1.35;;;;;;;3.03;60.32;94107.06;5026662;28;20606;-88
2024/01/16 06:08:30;;;;;;;1.88;1.40;;;;;;;3.02;60.20;94117.16;5026582;28;20037;-87
2024/01/16 06:10:56;;;;;;;1.48;1.30;;;;;;;2.92;59.93;94134.34;5029152;28;20560;-87
2024/01/16 06:13:22;;;;;;;2.15;1.60;;;;;;;2.90;59.77;94142.91;5025781;28;20040;-89
2024/01/16 06:15:47;;;;;;;1.77;1.10;;;;;;;2.88;59.51;94142.56;5025570;28;20033;-88
2024/01/16 06:18:13;;;;;;;2.67;1.40;;;;;;;2.78;59.63;94157.03;5026653;28;20028;-89
2024/01/16 06:20:38;;;;;;;1.60;1.30;;;;;;;2.84;59.54;94162.78;5026737;28;20025;-89
2024/01/16 06:23:03;;;;;;;2.03;1.30;;;;;;;2.86;59.29;94177.47;5028724;28;20022;-88
2024/01/16 06:25:29;;;;;;;3.15;1.98;;;;;;;2.85;59.12;94180.59;5031262;28;20420;-89
2024/01/16 06:27:55;;;;;;;1.70;1.30;;;;;;;2.83;59.18;94189.16;5028414;28;20025;-89
2024/01/16 06:30:24;;;;;;;2.28;1.33;;;;;;;2.85;59.07;94207.75;5025779;28;20033;-88
2024/01/16 06:32:49;;;;;;;2.25;1.40;;;;;;;2.87;59.12;94202.69;5023700;28;20028;-89
2024/01/16 06:35:16;;;;;;;1.50;1.30;;;;;;;2.91;58.98;94208.84;5025902;28;20025;-88
2024/01/16 06:37:42;;;;;;;3.03;1.88;;;;;;;2.86;59.01;94204.63;5024844;28;20130;-88
2024/01/16 06:40:07;;;;;;;2.42;1.60;;;;;;;2.83;58.91;94208.16;5025009;28;20499;-81
2024/01/16 06:42:33;;;;;;;2.90;1.75;;;;;;;2.85;58.67;94222.09;5025321;28;20031;-85
2024/01/16 06:44:59;;;;;;;2.90;1.83;;;;;;;2.93;58.55;94237.13;5026282;28;20187;-86
2024/01/16 06:47:24;;;;;;;1.95;1.35;;;;;;;2.89;58.90;94238.34;5025574;28;20029;-86
2024/01/16 06:49:50;;;;;;;2.55;1.45;;;;;;;2.93;58.56;94239.84;5025027;28;20116;-86
2024/01/16 06:52:15;;;;;;;1.70;1.48;;;;;;;2.93;58.62;94236.38;5026934;28;20083;-86
2024/01/16 06:54:40;;;;;;;2.53;1.60;;;;;;;2.88;58.58;94245.72;5025710;28;20060;-85
2024/01/16 06:57:06;;;;;;;2.22;1.40;;;;;;;2.86;58.77;94253.50;5025128;28;20507;-88
2024/01/16 06:59:32;;;;;;;1.90;1.10;;;;;;;2.88;58.90;94255.81;5024309;28;20512;-81
2024/01/16 07:01:57;;;;;;;2.55;1.45;;;;;;;2.86;58.84;94258.16;5024882;28;20029;-82
2024/01/16 07:04:22;;;;;;;2.05;1.40;;;;;;;2.87;58.75;94271.34;5024383;28;20029;-83
2024/01/16 07:06:48;;;;;;;2.65;1.60;;;;;;;2.87;58.70;94271.34;5024785;28;20025;-84
2024/01/16 07:09:13;;;;;;;2.40;1.80;;;;;;;2.91;58.75;94287.56;5024808;28;20025;-83
2024/01/16 07:11:42;;;;;;;3.10;1.98;;;;;;;2.95;58.50;94304.59;5024387;28;20061;-83
2024/01/16 07:14:08;;;;;;;3.03;1.80;;;;;;;2.91;58.71;94306.59;5025066;28;20029;-83
2024/01/16 07:16:34;;;;;;;2.05;1.67;;;;;;;2.94;58.75;94316.66;5024143;28;20041;-84
2024/01/16 07:18:59;;;;;;;3.28;1.92;;;;;;;2.88;59.10;94327.19;5024742;28;20080;-83
2024/01/16 07:21:25;;;;;;;1.92;1.58;;;;;;;2.98;59.02;94333.66;5024313;28;20472;-84
2024/01/16 07:23:50;;;;;;;3.15;2.05;;;;;;;3.00;59.00;94342.19;5028218;28;20124;-84
2024/01/16 07:26:16;;;;;;;4.50;2.47;;;;;;;3.06;58.78;94351.44;5045179;28;20480;-82
2024/01/16 07:28:42;;;;;;;3.05;2.30;;;;;;;3.10;58.59;94352.19;5049642;28;20033;-82
2024/01/16 07:31:09;;;;;;;3.25;1.92;;;;;;;3.08;58.48;94354.53;5051002;28;20029;-82
2024/01/16 07:33:34;;;;;;;2.92;1.92;;;;;;;3.05;58.58;94347.19;5051004;28;20029;-83
2024/01/16 07:36:00;;;;;;;2.58;1.60;;;;;;;3.00;58.36;94365.88;5059101;28;20044;-82
2024/01/16 07:38:25;;;;;;;3.90;1.98;;;;;;;3.03;58.64;94362.31;5069773;28;20075;-83
2024/01/16 07:40:51;;;;;;;2.35;1.98;;;;;;;3.02;58.74;94371.66;5065434;28;20422;-83
2024/01/16 07:43:16;;;;;;;3.28;1.92;;;;;;;2.98;58.68;94363.53;5061922;28;20025;-82
2024/01/16 07:45:41;;;;;;;3.17;1.83;;;;;;;3.03;58.67;94365.81;5056456;28;20107;-83
2024/01/16 07:48:08;;;;;;;3.53;1.60;;;;;;;3.07;58.23;94379.38;5050024;28;20028;-82
2024/01/16 07:50:33;;;;;;;4.68;2.10;;;;;;;3.03;58.07;94384.81;5048295;28;20101;-85
2024/01/16 07:52:58;;;;;;;2.88;1.95;;;;;;;3.11;58.06;94399.13;5049388;28;20551;-82
2024/01/16 07:55:24;;;;;;;5.40;2.15;;;;;;;3.17;57.68;94401.00;5048052;28;20029;-84
2024/01/16 07:57:49;;;;;;;3.13;2.00;;;;;;;3.22;57.53;94405.25;5048700;28;20032;-83
2024/01/16 08:00:15;;;;;;;5.60;2.50;;;;;;;3.24;57.27;94416.47;5047921;28;20056;-83
2024/01/16 08:02:41;;;;;;;4.05;2.25;;;;;;;3.24;57.26;94413.75;5047575;28;20044;-83
2024/01/16 08:05:07;;;;;;;4.03;2.00;;;;;;;3.23;56.95;94395.13;5047742;28;20113;-83
2024/01/16 08:07:32;;;;;;;4.45;1.90;;;;;;;3.30;56.46;94417.56;5047721;28;20036;-82
2024/01/16 08:09:58;;;;;;;4.22;2.42;;;;;;;3.30;56.34;94424.94;5047658;28;20124;-83
2024/01/16 08:12:23;;;;;;;5.85;2.45;;;;;;;3.23;56.50;94425.03;5048361;28;20028;-84
2024/01/16 08:14:48;;;;;;;6.60;2.97;;;;;;;3.20;56.73;94435.50;5048327;28;20091;-83
2024/01/16 08:17:14;;;;;;;6.75;3.05;;;;;;;3.27;56.26;94442.03;5047150;28;20522;-84
2024/01/16 08:19:39;;;;;;;5.30;2.63;;;;;;;3.29;55.86;94448.63;5047703;28;20040;-83
2024/01/16 08:22:05;;;;;;;4.30;1.95;;;;;;;3.19;55.92;94463.84;5047146;28;20025;-83
2024/01/16 08:24:31;;;;;;;4.13;1.92;;;;;;;3.27;55.47;94461.84;5048011;28;20040;-83
2024/01/16 08:26:59;;;;;;;3.38;1.73;;;;;;;3.28;55.29;94466.13;5048458;28;20032;-85
2024/01/16 08:29:24;;;;;;;2.33;1.60;;;;;;;3.30;55.21;94474.63;5047256;28;20029;-84
2024/01/16 08:31:52;;;;;;;2.92;1.55;;;;;;;3.32;55.02;94474.97;5047541;28;20025;-83
2024/01/16 08:34:18;;;;;;;2.92;1.73;;;;;;;3.27;55.04;94482.78;5045732;28;20111;-82
2024/01/16 08:36:43;;;;;;;1.98;1.30;;;;;;;3.17;55.28;94479.78;5046868;28;20075;-83
2024/01/16 08:39:10;;;;;;;2.97;1.73;;;;;;;3.16;55.57;94491.81;5047233;28;20110;-83
2024/01/16 08:41:36;;;;;;;4.05;2.22;;;;;;;3.15;55.60;94505.78;5047738;28;20100;-83
2024/01/16 08:44:01;;;;;;;2.42;1.38;;;;;;;3.13;55.45;94503.47;5047285;28;20120;-83
2024/01/16 08:46:26;;;;;;;2.42;1.60;;;;;;;3.13;55.54;94498.03;5047013;28;20035;-83
2024/01/16 08:48:52;;;;;;;2.80;1.50;;;;;;;3.12;55.54;94515.50;5046973;28;20029;-81
2024/01/16 08:51:17;;;;;;;2.13;1.50;;;;;;;3.08;55.66;94516.69;5046707;28;20037;-82
2024/01/16 08:53:42;;;;;;;3.72;1.80;;;;;;;3.04;55.79;94515.94;5047059;28;20033;-82
2024/01/16 08:56:08;;;;;;;2.92;1.60;;;;;;;3.01;55.83;94516.75;5047126;28;20025;-83
2024/01/16 08:58:38;;;;;;;3.58;1.63;;;;;;;3.02;55.69;94526.44;5046910;28;20024;-84
2024/01/16 09:01:06;;;;;;;2.72;1.60;;;;;;;3.00;55.58;94524.13;5046468;28;20032;-81
2024/01/16 09:03:32;;;;;;;3.08;1.88;;;;;;;3.00;55.48;94523.38;5047033;28;20033;-84
2024/01/16 09:05:58;;;;;;;3.58;1.55;;;;;;;3.00;55.32;94520.66;5046508;28;20035;-83
2024/01/16 09:08:23;;;;;;;2.97;1.58;;;;;;;3.06;55.29;94519.06;5046687;28;20029;-83
2024/01/16 09:10:48;;;;;;;2.28;1.60;;;;;;;3.07;55.03;94531.47;5046499;28;20116;-83
2024/01/16 09:13:14;;;;;;;2.97;2.00;;;;;;;3.11;55.05;94530.28;5046170;28;20104;-83
2024/01/16 09:15:39;;;;;;;2.72;1.80;;;;;;;3.12;55.22;94545.38;5046581;28;20055;-82
2024/01/16 09:18:05;;;;;;;3.28;1.70;;;;;;;3.19;55.05;94537.19;5045804;28;20071;-82
2024/01/16 09:20:31;;;;;;;2.58;1.80;;;;;;;3.28;54.89;94538.69;5044824;28;20040;-82
2024/01/16 09:22:56;;;;;;;3.72;1.77;;;;;;;3.36;54.90;94537.47;5046005;28;20029;-83
2024/01/16 09:25:24;;;;;;;3.95;1.98;;;;;;;3.38;54.26;94538.63;5046639;28;20082;-84
2024/01/16 09:27:50;;;;;;;2.45;1.52;;;;;;;3.36;54.24;94546.38;5045818;28;20021;-83
2024/01/16 09:30:16;;;;;;;2.28;1.55;;;;;;;3.40;54.13;94551.81;5046133;28;20025;-83
2024/01/16 09:32:42;;;;;;;1.88;1.45;;;;;;;3.49;54.06;94549.38;5046297;28;20033;-83
2024/01/16 09:35:09;;;;;;;2.53;1.77;;;;;;;3.61;53.99;94539.97;5044654;28;20048;-84
2024/01/16 09:37:35;;;;;;;2.70;1.70;;;;;;;3.76;53.11;94538.69;5046268;28;20049;-83
2024/01/16 09:40:00;;;;;;;2.60;1.55;;;;;;;4.16;51.67;94536.34;5046175;28;20021;-83
2024/01/16 09:42:27;;;;;;;1.90;1.35;;;;;;;4.54;50.84;94553.44;5045990;28;20105;-82
2024/01/16 09:44:55;;;;;;;1.85;1.40;;;;;;;4.65;50.91;94551.34;5045547;28;20097;-82
2024/01/16 09:47:20;;;;;;;1.95;1.50;;;;;;;4.95;49.82;94558.75;5045994;28;20031;-83
2024/01/16 09:49:47;;;;;;;2.83;1.73;;;;;;;5.10;49.06;94564.75;5044733;28;20029;-83
2024/01/16 09:52:13;;;;;;;4.15;2.35;;;;;;;5.39;48.39;94554.25;5045944;28;20112;-82
2024/01/16 09:54:38;;;;;;;5.88;3.25;;;;;;;7.14;44.50;94559.25;5046063;28;20108;-83
2024/01/16 09:57:05;;;;;;;4.28;2.15;;;;;;;8.46;41.75;94548.66;5045663;28;20108;-83
2024/01/16 09:59:31;;;;;;;2.83;1.80;;;;;;;8.99;40.63;94548.38;5044333;28;20033;-83
2024/01/16 10:01:58;;;;;;;2.40;1.60;;;;;;;11.26;36.19;94535.78;5045002;28;20150;-84
2024/01/16 10:04:23;;;;;;;1.77;1.20;;;;;;;11.63;34.77;94542.97;5045648;28;20415;-84
2024/01/16 10:06:49;;;;;;;2.60;1.40;;;;;;;11.21;35.09;94539.13;5045137;28;20029;-83
2024/01/16 10:09:15;;;;;;;4.70;2.65;;;;;;;10.66;35.96;94541.50;5044084;28;20025;-83
2024/01/16 10:11:41;;;;;;;5.50;3.03;;;;;;;10.19;36.30;94542.31;5045314;28;20124;-83
2024/01/16 10:14:07;;;;;;;4.97;2.67;;;;;;;10.44;35.62;94527.78;5044599;28;20125;-83
2024/01/16 10:17:14;;;;;;;5.65;2.20;;;;;;;10.80;34.90;94535.53;5045796;28;20041;-84
2024/01/16 10:19:53;;;;;;;3.75;1.98;;;;;;;9.95;36.22;94548.19;5045201;28;20028;-83
2024/01/16 10:22:25;;;;;;;3.08;2.30;;;;;;;9.41;37.27;94551.09;5045401;28;20041;-82
2024/01/16 10:25:08;;;;;;;2.67;1.90;;;;;;;9.04;38.16;94559.56;5045023;28;20021;-84
2024/01/16 10:27:34;;;;;;;3.10;1.70;;;;;;;8.59;38.48;94551.44;5043355;28;20076;-83
2024/01/16 10:29:59;;;;;;;3.17;2.28;;;;;;;8.31;39.45;94560.41;5043604;28;20124;-84
2024/01/16 10:32:29;;;;;;;2.85;1.70;;;;;;;7.91;40.13;94564.16;5045191;28;20025;-83
2024/01/16 10:35:11;;;;;;;3.42;2.40;;;;;;;7.63;40.90;94557.38;5044949;28;20340;-84
2024/01/16 10:37:45;;;;;;;5.10;2.70;;;;;;;7.34;41.42;94562.75;5045044;28;20364;-83
2024/01/16 10:40:18;;;;;;;3.67;2.20;;;;;;;7.11;42.21;94562.81;5044676;28;20039;-84
2024/01/16 10:43:04;;;;;;;3.10;2.40;;;;;;;7.08;42.28;94566.44;5045125;28;20518;-85
2024/01/16 10:45:31;;;;;;;5.53;3.13;;;;;;;6.94;43.09;94556.56;5044325;28;20032;-84
2024/01/16 10:48:04;;;;;;;5.47;3.65;;;;;;;6.93;43.14;94563.97;5044425;28;20036;-84
2024/01/16 10:50:30;;;;;;;4.13;2.10;;;;;;;6.70;43.10;94558.59;5044650;28;20087;-84
2024/01/16 10:52:59;;;;;;;2.97;1.90;;;;;;;6.78;43.07;94554.53;5044691;28;20021;-82
2024/01/16 10:55:27;;;;;;;3.25;2.13;;;;;;;6.77;42.87;94546.78;5044765;28;20028;-83
2024/01/16 10:57:55;;;;;;;2.78;1.90;;;;;;;6.67;43.07;94553.22;5043706;28;20025;-82
2024/01/16 11:00:21;;;;;;;3.25;2.00;;;;;;;6.54;43.16;94548.41;5043426;28;20100;-83
2024/01/16 11:03:40;;;;;;;2.83;1.65;;;;;;;6.46;43.41;94568.81;5044452;28;20052;-84
2024/01/16 11:06:08;;;;;;;3.97;1.98;;;;;;;6.40;43.58;94567.75;5041388;28;20083;-83
2024/01/16 11:08:36;;;;;;;3.40;1.75;;;;;;;6.31;43.34;94565.59;5042221;28;20128;-83
2024/01/16 11:11:03;;;;;;;3.20;2.20;;;;;;;6.47;43.22;94580.50;5025110;28;20114;-83
2024/01/16 11:13:31;;;;;;;3.50;2.28;;;;;;;6.38;43.74;94583.81;5025597;28;20041;-83
2024/01/16 11:15:57;;;;;;;3.83;1.80;;;;;;;6.22;44.20;94579.00;5041475;28;20041;-83
2024/01/16 11:18:24;;;;;;;6.82;3.65;;;;;;;6.21;44.37;94566.56;5041817;28;20083;-83
2024/01/16 11:20:51;;;;;;;3.92;2.50;;;;;;;6.18;44.51;94575.56;5041906;28;20045;-83
2024/01/16 11:23:16;;;;;;;3.55;2.00;;;;;;;6.17;44.77;94581.44;5041748;28;20098;-84
2024/01/16 11:25:41;;;;;;;4.57;1.95;;;;;;;6.10;44.83;94579.63;5042088;28;20403;-82
2024/01/16 11:28:11;;;;;;;3.80;2.70;;;;;;;6.07;45.39;94578.47;5041564;28;20033;-83
2024/01/16 11:30:37;;;;;;;2.90;2.50;;;;;;;6.04;45.50;94573.09;5041857;28;20041;-83
2024/01/16 11:33:04;;;;;;;4.78;3.25;;;;;;;5.92;46.29;94574.47;5041319;28;20051;-83
2024/01/16 11:35:38;;;;;;;7.97;4.00;;;;;;;5.87;46.52;94583.09;5041531;28;20602;-83